Terminal Aerodrome Forecast
Issued by NWS

Home | Current Version | Previous Version | Text Only | Print | Product List | Glossary On
Versions: 1 2 3 4 5 6 7 8 9 10 11 12 13 14 15 16 17 18
000
FTUS46 KLOX 011309 AAB
TAFBUR
TAF AMD
KBUR 011309Z 0113/0212 VRB03KT P6SM OVC014
     FM011700 VRB03KT P6SM SCT018
     FM011900 17008KT P6SM SCT030 SCT250
     FM020300 VRB03KT P6SM SCT040
     FM021100 VRB03KT P6SM OVC010=

USA.gov is the U.S. government's official web portal to all federal, state and local government web resources and services.